createdAt,value
2023-04-15T00:01:04.849Z,69.04
2023-04-15T00:03:31.852Z,68.61
2023-04-15T00:05:58.710Z,68.86
2023-04-15T00:08:25.704Z,69.51
2023-04-15T00:10:53.101Z,69.92
2023-04-15T00:13:19.928Z,68.72
2023-04-15T00:15:46.634Z,69.64
2023-04-15T00:18:13.339Z,69.80
2023-04-15T00:20:40.041Z,70.61
2023-04-15T00:23:07.077Z,72.11
2023-04-15T00:25:33.788Z,72.92
2023-04-15T00:28:00.564Z,70.83
2023-04-15T00:30:27.292Z,70.39
2023-04-15T00:32:54.058Z,71.68
2023-04-15T00:35:20.797Z,72.10
2023-04-15T00:37:47.577Z,72.07
2023-04-15T00:40:18.874Z,70.89
2023-04-15T00:42:47.755Z,72.80
2023-04-15T00:45:14.400Z,74.00
2023-04-15T00:47:45.085Z,73.18
2023-04-15T00:50:12.730Z,73.94
2023-04-15T00:52:40.952Z,73.49
2023-04-15T00:55:08.781Z,72.45
2023-04-15T00:57:36.539Z,71.62
2023-04-15T01:00:05.389Z,73.96
2023-04-15T01:02:32.393Z,74.50
2023-04-15T01:04:59.353Z,74.58
2023-04-15T01:07:26.088Z,74.44
2023-04-15T01:09:53.196Z,73.58
2023-04-15T01:12:20.510Z,74.05
2023-04-15T01:14:47.288Z,74.66
2023-04-15T01:17:14.172Z,73.57
2023-04-15T01:19:40.842Z,74.49
2023-04-15T01:22:07.722Z,74.07
2023-04-15T01:24:36.904Z,73.29
2023-04-15T01:27:05.250Z,73.69
2023-04-15T01:29:35.677Z,73.99
2023-04-15T01:32:02.322Z,73.69
2023-04-15T01:34:28.944Z,73.08
2023-04-15T01:36:55.538Z,74.63
2023-04-15T01:39:22.167Z,74.71
2023-04-15T01:41:48.771Z,75.86
2023-04-15T01:44:15.399Z,76.01
2023-04-15T01:46:42.122Z,75.95
2023-04-15T01:49:08.813Z,73.73
2023-04-15T01:51:35.426Z,73.45
2023-04-15T01:54:02.038Z,74.07
2023-04-15T01:56:28.636Z,72.30
2023-04-15T01:58:55.316Z,73.79
2023-04-15T02:01:22.394Z,73.05
2023-04-15T02:03:49.363Z,72.87
2023-04-15T02:06:16.212Z,72.55
2023-04-15T02:08:42.848Z,74.02
2023-04-15T02:11:09.495Z,74.46
2023-04-15T02:13:36.099Z,72.54
2023-04-15T02:16:03.471Z,72.53
2023-04-15T02:18:30.152Z,73.00
2023-04-15T02:20:56.796Z,72.01
2023-04-15T02:23:23.401Z,71.00
2023-04-15T02:25:53.346Z,70.15
2023-04-15T02:28:21.887Z,70.49
2023-04-15T02:30:49.459Z,70.34
2023-04-15T02:33:16.077Z,69.21
2023-04-15T02:35:42.748Z,68.35
2023-04-15T02:38:09.435Z,69.35
2023-04-15T02:40:36.089Z,68.37
2023-04-15T02:43:03.128Z,69.84
2023-04-15T02:45:29.795Z,70.17
2023-04-15T02:47:56.482Z,69.94
2023-04-15T02:50:23.160Z,70.05
2023-04-15T02:52:49.797Z,70.94
2023-04-15T02:55:16.411Z,70.91
2023-04-15T02:57:43.066Z,71.45
2023-04-15T03:00:10.626Z,71.36
2023-04-15T03:02:39.062Z,73.44
2023-04-15T03:05:06.309Z,71.47
2023-04-15T03:07:33.021Z,72.57
2023-04-15T03:09:59.644Z,72.87
2023-04-15T03:12:26.296Z,73.22
2023-04-15T03:14:52.900Z,73.60
2023-04-15T03:17:19.524Z,72.02
2023-04-15T03:19:46.198Z,70.01
2023-04-15T03:22:12.801Z,71.68
2023-04-15T03:24:39.436Z,72.71
2023-04-15T03:27:06.076Z,73.17
2023-04-15T03:29:32.712Z,73.77
2023-04-15T03:31:59.330Z,72.90
2023-04-15T03:34:25.946Z,74.23
2023-04-15T03:36:52.633Z,73.56
2023-04-15T03:39:19.229Z,75.50
2023-04-15T03:41:45.998Z,74.95
2023-04-15T03:44:12.629Z,74.39
2023-04-15T03:46:39.231Z,73.50
2023-04-15T03:49:07.284Z,73.19
2023-04-15T03:51:33.977Z,72.34
2023-04-15T03:54:00.616Z,73.53
2023-04-15T03:56:27.274Z,72.09
2023-04-15T03:58:53.877Z,71.81
2023-04-15T04:01:20.503Z,72.43
2023-04-15T04:03:50.237Z,72.87
2023-04-15T04:06:17.050Z,72.79
2023-04-15T04:08:43.672Z,71.68
2023-04-15T04:11:10.350Z,73.35
2023-04-15T04:13:37.052Z,74.77
2023-04-15T04:16:03.789Z,75.51
2023-04-15T04:18:34.038Z,76.15
2023-04-15T04:21:01.346Z,75.54
2023-04-15T04:23:28.057Z,75.20
2023-04-15T04:25:54.788Z,74.09
2023-04-15T04:28:21.540Z,73.57
2023-04-15T04:30:48.286Z,73.73
2023-04-15T04:33:15.053Z,74.33
2023-04-15T04:35:41.691Z,74.41
2023-04-15T04:38:08.278Z,73.00
2023-04-15T04:40:35.094Z,73.39
2023-04-15T04:43:01.840Z,73.61
2023-04-15T04:45:28.454Z,75.32
2023-04-15T04:47:55.569Z,74.34
2023-04-15T04:50:22.264Z,74.88
2023-04-15T04:52:48.939Z,77.59
2023-04-15T04:55:15.749Z,74.76
2023-04-15T04:57:42.377Z,73.40
2023-04-15T05:00:09.400Z,71.78
2023-04-15T05:02:36.281Z,70.22
2023-04-15T05:05:03.061Z,71.60
2023-04-15T05:07:29.734Z,72.89
2023-04-15T05:09:56.334Z,72.25
2023-04-15T05:12:22.984Z,72.93
2023-04-15T05:14:49.583Z,72.09
2023-04-15T05:17:16.217Z,73.05
2023-04-15T05:19:42.874Z,71.40
2023-04-15T05:22:09.473Z,70.45
2023-04-15T05:24:36.193Z,70.93
2023-04-15T05:27:02.814Z,72.97
2023-04-15T05:29:29.523Z,74.84
2023-04-15T05:31:56.632Z,73.24
2023-04-15T05:34:23.267Z,73.59
2023-04-15T05:36:49.921Z,71.63
2023-04-15T05:39:16.698Z,70.85
2023-04-15T05:41:43.762Z,69.17
2023-04-15T05:44:10.391Z,68.74
2023-04-15T05:46:37.157Z,68.35
2023-04-15T05:49:04.102Z,67.37
2023-04-15T05:51:30.920Z,67.68
2023-04-15T05:53:57.590Z,66.71
2023-04-15T05:56:24.238Z,65.97
2023-04-15T05:58:52.518Z,67.60
2023-04-15T06:01:20.478Z,68.66
2023-04-15T06:03:47.325Z,70.55
2023-04-15T06:06:14.389Z,71.19
2023-04-15T06:08:41.335Z,72.17
2023-04-15T06:11:07.975Z,73.89
2023-04-15T06:13:34.987Z,74.64
2023-04-15T06:16:02.428Z,75.59
2023-04-15T06:18:29.034Z,76.71
2023-04-15T06:20:55.832Z,77.67
2023-04-15T06:23:22.452Z,78.22
2023-04-15T06:25:49.079Z,78.85
2023-04-15T06:28:15.715Z,79.57
2023-04-15T06:30:42.397Z,81.20
2023-04-15T06:33:09.024Z,83.38
2023-04-15T06:35:35.669Z,83.53
2023-04-15T06:38:02.363Z,83.49
2023-04-15T06:40:29.093Z,83.57
2023-04-15T06:42:55.837Z,81.41
2023-04-15T06:45:22.529Z,81.26
2023-04-15T06:47:49.269Z,80.82
2023-04-15T06:50:15.990Z,81.30
2023-04-15T06:52:42.691Z,80.92
2023-04-15T06:55:09.486Z,79.27
2023-04-15T06:57:36.440Z,78.80
2023-04-15T07:00:04.849Z,78.49
2023-04-15T07:02:31.597Z,78.10
2023-04-15T07:04:58.325Z,78.17
2023-04-15T07:07:25.156Z,76.74
2023-04-15T07:09:51.849Z,76.96
2023-04-15T07:12:18.474Z,76.60
2023-04-15T07:14:45.101Z,79.77
2023-04-15T07:17:11.859Z,78.13
2023-04-15T07:19:38.557Z,78.08
2023-04-15T07:22:05.513Z,76.65
2023-04-15T07:24:32.114Z,78.16
2023-04-15T07:27:00.350Z,80.28
2023-04-15T07:29:27.732Z,79.42
2023-04-15T07:31:54.360Z,78.84
2023-04-15T07:34:21.081Z,79.13
2023-04-15T07:36:47.941Z,78.76
2023-04-15T07:39:14.648Z,78.66
2023-04-15T07:41:41.361Z,79.10
2023-04-15T07:44:08.024Z,77.36
2023-04-15T07:46:34.858Z,76.91
2023-04-15T07:49:01.851Z,76.71
2023-04-15T07:51:28.763Z,77.86
2023-04-15T07:53:55.365Z,77.87
2023-04-15T07:56:22.024Z,76.30
2023-04-15T07:58:48.725Z,77.14
2023-04-15T08:01:15.391Z,75.45
2023-04-15T08:03:42.171Z,77.01
2023-04-15T08:06:08.894Z,76.22
2023-04-15T08:08:35.510Z,74.70
2023-04-15T08:11:02.152Z,75.57
2023-04-15T08:13:28.769Z,75.60
2023-04-15T08:16:15.063Z,76.10
2023-04-15T08:18:43.280Z,75.10
2023-04-15T08:21:10.664Z,73.88
2023-04-15T08:23:38.422Z,74.44
2023-04-15T08:26:05.411Z,75.64
2023-04-15T08:28:32.081Z,74.98
2023-04-15T08:30:59.324Z,75.05
2023-04-15T08:33:26.220Z,73.76
2023-04-15T08:35:52.949Z,74.54
2023-04-15T08:38:19.582Z,72.49
2023-04-15T08:40:46.766Z,72.89
2023-04-15T08:43:21.508Z,72.21
2023-04-15T08:45:49.388Z,70.52
2023-04-15T08:48:17.466Z,70.19
2023-04-15T08:50:44.919Z,70.39
2023-04-15T08:53:12.718Z,70.12
2023-04-15T08:55:44.569Z,69.66
2023-04-15T08:58:13.791Z,68.29
2023-04-15T09:00:41.059Z,68.25
2023-04-15T09:03:10.469Z,69.11
2023-04-15T09:05:38.737Z,69.55
2023-04-15T09:08:05.556Z,69.80
2023-04-15T09:10:33.644Z,70.85
2023-04-15T09:13:01.735Z,70.51
2023-04-15T09:15:28.383Z,70.67
2023-04-15T09:17:55.675Z,72.19
2023-04-15T09:20:24.207Z,72.41
2023-04-15T09:22:53.647Z,72.95
2023-04-15T09:25:23.067Z,71.65
2023-04-15T09:27:58.633Z,71.86
2023-04-15T09:30:25.896Z,72.64
2023-04-15T09:32:53.974Z,70.82
2023-04-15T09:35:22.483Z,71.83
2023-04-15T09:37:50.116Z,72.86
2023-04-15T09:40:33.232Z,71.34
2023-04-15T09:43:00.222Z,70.39
2023-04-15T09:45:29.285Z,70.01
2023-04-15T09:47:59.198Z,70.59
2023-04-15T09:50:29.615Z,69.38
2023-04-15T09:52:56.275Z,68.68
2023-04-15T09:55:23.078Z,69.13
2023-04-15T09:57:49.699Z,69.94
2023-04-15T10:00:16.493Z,68.62
2023-04-15T10:02:43.511Z,65.85
2023-04-15T10:05:15.620Z,67.82
2023-04-15T10:07:42.687Z,68.43
2023-04-15T10:10:10.821Z,67.45
2023-04-15T10:12:40.750Z,68.64
2023-04-15T10:15:15.579Z,67.78
2023-04-15T10:17:44.619Z,69.15
2023-04-15T10:20:13.529Z,70.18
2023-04-15T10:22:40.768Z,68.89
2023-04-15T10:25:07.777Z,68.80
2023-04-15T10:27:36.260Z,68.94
2023-04-15T10:30:03.875Z,68.76
2023-04-15T10:32:32.719Z,67.50
2023-04-15T10:35:00.238Z,68.25
2023-04-15T10:37:39.181Z,67.39
2023-04-15T10:40:27.130Z,68.22
2023-04-15T10:42:55.781Z,66.70
2023-04-15T10:45:26.092Z,69.02
2023-04-15T10:47:55.613Z,69.84
2023-04-15T10:50:22.328Z,70.29
2023-04-15T10:52:55.187Z,69.59
2023-04-15T10:55:26.010Z,68.85
2023-04-15T10:57:59.920Z,68.88
2023-04-15T11:00:32.327Z,70.24
2023-04-15T11:03:05.308Z,69.99
2023-04-15T11:05:41.184Z,70.47
2023-04-15T11:08:10.527Z,68.82
2023-04-15T11:10:37.227Z,68.16
2023-04-15T11:13:14.818Z,66.64
2023-04-15T11:15:43.993Z,68.07
2023-04-15T11:18:19.780Z,67.31
2023-04-15T11:20:51.282Z,65.15
2023-04-15T11:23:38.034Z,68.59
2023-04-15T11:26:07.197Z,68.51
2023-04-15T11:28:33.839Z,66.94
2023-04-15T11:31:07.572Z,68.97
2023-04-15T11:33:34.308Z,69.59
2023-04-15T11:36:01.571Z,69.39
2023-04-15T11:38:28.210Z,69.62
2023-04-15T11:40:54.902Z,69.17
2023-04-15T11:43:23.345Z,67.79
2023-04-15T11:45:54.366Z,68.39
2023-04-15T11:48:23.927Z,67.23
2023-04-15T11:51:03.791Z,64.88
2023-04-15T11:53:51.594Z,64.43
2023-04-15T11:56:25.247Z,63.15
2023-04-15T11:58:54.511Z,63.90
2023-04-15T12:01:21.350Z,64.74
2023-04-15T12:04:01.206Z,61.41
2023-04-15T12:06:33.841Z,64.83
2023-04-15T12:09:06.469Z,65.78
2023-04-15T12:11:45.756Z,66.38
2023-04-15T12:14:26.011Z,66.85
2023-04-15T12:16:55.012Z,64.41
2023-04-15T12:19:31.057Z,62.61
2023-04-15T12:22:01.341Z,63.11
2023-04-15T12:24:28.351Z,63.25
2023-04-15T12:26:57.384Z,63.78
2023-04-15T12:29:29.092Z,63.65
2023-04-15T12:32:05.800Z,62.91
2023-04-15T12:34:41.083Z,61.54
2023-04-15T12:37:10.333Z,62.60
2023-04-15T12:39:39.415Z,61.65
2023-04-15T12:42:07.162Z,62.21
2023-04-15T12:44:35.165Z,62.89
2023-04-15T12:47:01.953Z,62.89
2023-04-15T12:49:29.649Z,62.42
2023-04-15T12:51:58.634Z,62.94
2023-04-15T12:54:25.530Z,63.32
2023-04-15T12:56:53.177Z,62.65
2023-04-15T12:59:22.037Z,63.75
2023-04-15T13:01:49.319Z,63.18
2023-04-15T13:04:16.955Z,63.81
2023-04-15T13:06:44.616Z,63.52
2023-04-15T13:09:11.357Z,63.60
2023-04-15T13:11:39.077Z,64.15
2023-04-15T13:14:08.602Z,64.99
2023-04-15T13:16:36.205Z,64.92
2023-04-15T13:19:04.177Z,64.18
2023-04-15T13:21:31.606Z,64.43
2023-04-15T13:23:58.195Z,62.46
2023-04-15T13:26:24.869Z,65.36
2023-04-15T13:28:51.499Z,63.99
2023-04-15T13:31:18.098Z,65.77
2023-04-15T13:33:44.718Z,64.38
2023-04-15T13:36:11.507Z,63.75
2023-04-15T13:38:38.140Z,62.27
2023-04-15T13:41:04.785Z,62.49
2023-04-15T13:43:31.396Z,60.38
2023-04-15T13:45:58.195Z,61.51
2023-04-15T13:48:24.989Z,62.78
2023-04-15T13:50:51.900Z,61.27
2023-04-15T13:53:18.564Z,61.17
2023-04-15T13:55:45.190Z,61.44
2023-04-15T13:58:11.826Z,62.72
2023-04-15T14:00:38.409Z,62.30
2023-04-15T14:03:05.371Z,60.82
2023-04-15T14:05:33.082Z,60.69
2023-04-15T14:08:00.560Z,59.96
2023-04-15T14:10:27.219Z,60.03
2023-04-15T14:12:53.853Z,60.46
2023-04-15T14:15:21.309Z,59.50
2023-04-15T14:17:48.211Z,60.03
2023-04-15T14:20:16.925Z,61.15
2023-04-15T14:22:44.047Z,61.27
2023-04-15T14:25:17.298Z,60.78
2023-04-15T14:27:50.051Z,59.98
2023-04-15T14:30:16.671Z,59.64
2023-04-15T14:32:43.526Z,60.87
2023-04-15T14:35:10.136Z,64.47
2023-04-15T14:37:36.888Z,63.33
2023-04-15T14:40:03.676Z,61.89
2023-04-15T14:42:30.347Z,60.60
2023-04-15T14:44:56.955Z,61.23
2023-04-15T14:47:23.638Z,64.51
2023-04-15T14:49:50.657Z,61.18
2023-04-15T14:52:17.425Z,58.98
2023-04-15T14:54:44.157Z,60.47
2023-04-15T14:57:10.807Z,62.52
2023-04-15T14:59:37.468Z,64.42
2023-04-15T15:02:04.239Z,65.44
2023-04-15T15:04:31.135Z,65.13
2023-04-15T15:06:57.786Z,64.70
2023-04-15T15:09:24.754Z,64.88
2023-04-15T15:11:51.734Z,64.52
2023-04-15T15:14:20.275Z,65.04
2023-04-15T15:16:46.938Z,64.78
2023-04-15T15:19:13.919Z,62.65
2023-04-15T15:21:40.576Z,62.50
2023-04-15T15:24:07.620Z,63.02
2023-04-15T15:26:34.414Z,61.93
2023-04-15T15:29:01.104Z,64.65
2023-04-15T15:31:27.769Z,64.63
2023-04-15T15:33:54.437Z,65.48
2023-04-15T15:36:21.167Z,64.46
2023-04-15T15:38:47.871Z,64.36
2023-04-15T15:41:14.945Z,63.83
2023-04-15T15:43:41.627Z,63.03
2023-04-15T15:46:08.509Z,64.34
2023-04-15T15:48:35.421Z,63.25
2023-04-15T15:51:02.060Z,62.39
2023-04-15T15:53:28.652Z,63.19
2023-04-15T15:55:55.297Z,62.27
2023-04-15T15:58:21.930Z,62.17
2023-04-15T16:00:48.569Z,63.14
2023-04-15T16:03:15.531Z,62.98
2023-04-15T16:05:42.414Z,62.40
2023-04-15T16:08:09.174Z,62.94
2023-04-15T16:10:35.913Z,64.12
2023-04-15T16:13:02.852Z,63.60
2023-04-15T16:15:29.504Z,60.92
2023-04-15T16:17:56.314Z,61.62
2023-04-15T16:20:23.383Z,62.09
2023-04-15T16:22:50.107Z,62.74
2023-04-15T16:25:17.448Z,64.24
2023-04-15T16:27:58.878Z,66.12
2023-04-15T16:30:30.002Z,66.38
2023-04-15T16:32:57.429Z,67.70
2023-04-15T16:35:24.102Z,66.69
2023-04-15T16:37:50.707Z,66.58
2023-04-15T16:40:17.490Z,64.32
2023-04-15T16:42:44.155Z,64.29
2023-04-15T16:45:11.092Z,63.73
2023-04-15T16:47:37.827Z,65.03
2023-04-15T16:50:04.877Z,64.41
2023-04-15T16:52:31.612Z,64.39
2023-04-15T16:54:58.399Z,63.68
2023-04-15T16:57:25.097Z,63.13
2023-04-15T17:00:12.144Z,63.11
2023-04-15T17:02:38.884Z,63.12
2023-04-15T17:05:06.322Z,63.72
2023-04-15T17:07:32.940Z,63.86
2023-04-15T17:09:59.551Z,64.75
2023-04-15T17:12:26.218Z,63.39
2023-04-15T17:14:52.851Z,60.98
2023-04-15T17:17:19.466Z,62.67
2023-04-15T17:19:46.147Z,63.15
2023-04-15T17:22:16.579Z,63.57
2023-04-15T17:24:43.202Z,64.88
2023-04-15T17:27:09.811Z,66.07
2023-04-15T17:29:36.425Z,66.98
2023-04-15T17:32:03.358Z,67.45
2023-04-15T17:34:50.796Z,69.38
2023-04-15T17:37:16.838Z,69.46
2023-04-15T17:39:43.603Z,68.51
2023-04-15T17:42:13.385Z,67.88
2023-04-15T17:44:40.060Z,67.24
2023-04-15T17:47:06.766Z,67.56
2023-04-15T17:49:33.437Z,66.42
2023-04-15T17:52:00.725Z,67.77
2023-04-15T17:54:27.329Z,67.28
2023-04-15T17:56:54.300Z,66.49
2023-04-15T17:59:20.901Z,66.07
2023-04-15T18:01:47.589Z,66.47
2023-04-15T18:04:14.512Z,66.74
2023-04-15T18:06:41.438Z,66.36
2023-04-15T18:09:08.226Z,66.93
2023-04-15T18:11:34.931Z,66.57
2023-04-15T18:14:03.418Z,66.62
2023-04-15T18:16:30.383Z,67.75
2023-04-15T18:18:57.084Z,69.32
2023-04-15T18:21:23.781Z,68.11
2023-04-15T18:23:50.432Z,68.19
2023-04-15T18:26:17.083Z,67.94
2023-04-15T18:28:43.786Z,68.34
2023-04-15T18:31:10.452Z,68.07
2023-04-15T18:33:37.169Z,67.51
2023-04-15T18:36:03.922Z,66.66
2023-04-15T18:38:30.558Z,66.84
2023-04-15T18:40:57.189Z,65.92
2023-04-15T18:43:23.816Z,66.07
2023-04-15T18:45:52.411Z,65.81
2023-04-15T18:48:19.109Z,65.72
2023-04-15T18:50:45.699Z,65.77
2023-04-15T18:53:12.389Z,65.70
2023-04-15T18:55:39.934Z,65.31
2023-04-15T18:58:08.798Z,64.29
2023-04-15T19:00:36.307Z,64.16
2023-04-15T19:03:03.939Z,64.96
2023-04-15T19:05:30.600Z,65.23
2023-04-15T19:07:59.179Z,64.74
2023-04-15T19:10:26.400Z,65.57
2023-04-15T19:12:53.018Z,68.08
2023-04-15T19:15:19.979Z,67.19
2023-04-15T19:17:46.655Z,68.37
2023-04-15T19:20:13.316Z,67.16
2023-04-15T19:22:40.066Z,67.10
2023-04-15T19:25:06.950Z,66.27
2023-04-15T19:27:33.612Z,65.84
2023-04-15T19:30:00.244Z,65.27
2023-04-15T19:32:26.871Z,66.35
2023-04-15T19:34:53.544Z,65.73
2023-04-15T19:37:20.191Z,66.32
2023-04-15T19:39:46.893Z,67.12
2023-04-15T19:42:13.543Z,67.39
2023-04-15T19:44:40.126Z,67.70
2023-04-15T19:47:06.705Z,68.14
2023-04-15T19:49:33.366Z,68.13
2023-04-15T19:52:00.007Z,67.99
2023-04-15T19:54:26.652Z,67.73
2023-04-15T19:56:53.284Z,68.10
2023-04-15T19:59:19.953Z,68.93
2023-04-15T20:01:46.687Z,67.81
2023-04-15T20:04:13.506Z,69.49
2023-04-15T20:06:40.226Z,71.01
2023-04-15T20:09:07.787Z,71.51
2023-04-15T20:12:46.713Z,72.70
2023-04-15T20:14:22.799Z,70.62
2023-04-15T20:16:49.498Z,70.92
2023-04-15T20:19:16.161Z,72.74
2023-04-15T20:21:42.799Z,71.66
2023-04-15T20:24:09.598Z,72.36
2023-04-15T20:26:36.207Z,73.21
2023-04-15T20:29:02.949Z,74.99
2023-04-15T20:31:29.683Z,74.49
2023-04-15T20:33:57.215Z,73.10
2023-04-15T20:36:26.595Z,71.61
2023-04-15T20:38:53.186Z,71.78
2023-04-15T20:41:19.809Z,70.69
2023-04-15T20:43:46.507Z,70.44
2023-04-15T20:46:20.562Z,72.92
2023-04-15T20:48:48.622Z,74.18
2023-04-15T20:51:15.257Z,77.57
2023-04-15T20:53:42.010Z,78.54
2023-04-15T20:56:08.708Z,77.22
2023-04-15T20:58:35.422Z,76.28
2023-04-15T21:01:02.182Z,75.02
2023-04-15T21:03:32.401Z,74.33
2023-04-15T21:05:59.081Z,72.29
2023-04-15T21:08:25.824Z,74.74
2023-04-15T21:10:52.424Z,75.24
2023-04-15T21:13:19.094Z,75.94
2023-04-15T21:15:47.819Z,72.07
2023-04-15T21:18:14.733Z,72.52
2023-04-15T21:20:41.328Z,73.60
2023-04-15T21:23:07.956Z,72.69
2023-04-15T21:25:34.837Z,71.61
2023-04-15T21:28:01.486Z,71.50
2023-04-15T21:30:28.144Z,70.90
2023-04-15T21:32:55.048Z,70.17
2023-04-15T21:35:21.780Z,70.20
2023-04-15T21:37:48.429Z,74.90
2023-04-15T21:40:15.318Z,78.18
2023-04-15T21:42:41.906Z,79.76
2023-04-15T21:45:08.939Z,80.54
2023-04-15T21:48:00.438Z,79.85
2023-04-15T21:50:22.212Z,79.83
2023-04-15T21:52:48.807Z,79.38
2023-04-15T21:55:15.428Z,78.51
2023-04-15T21:57:42.053Z,77.84
2023-04-15T22:00:08.920Z,74.93
2023-04-15T22:02:35.667Z,72.17
2023-04-15T22:05:02.360Z,71.09
2023-04-15T22:07:29.070Z,71.70
2023-04-15T22:09:55.749Z,69.90
2023-04-15T22:12:24.540Z,69.44
2023-04-15T22:14:51.148Z,70.49
2023-04-15T22:17:17.835Z,70.41
2023-04-15T22:19:44.434Z,69.88
2023-04-15T22:22:11.185Z,70.62
2023-04-15T22:24:40.497Z,72.65
2023-04-15T22:27:07.537Z,69.95
2023-04-15T22:29:34.596Z,69.00
2023-04-15T22:32:01.195Z,68.71
2023-04-15T22:34:27.804Z,67.64
2023-04-15T22:36:54.414Z,66.87
2023-04-15T22:39:21.005Z,66.58
2023-04-15T22:41:47.691Z,66.79
2023-04-15T22:44:14.350Z,66.27
2023-04-15T22:46:41.043Z,66.20
2023-04-15T22:49:09.590Z,65.87
2023-04-15T22:51:36.761Z,65.99
2023-04-15T22:54:03.430Z,66.29
2023-04-15T22:56:30.087Z,67.28
2023-04-15T22:58:56.693Z,67.60
2023-04-15T23:01:23.333Z,69.24
2023-04-15T23:03:56.610Z,68.40
2023-04-15T23:06:31.640Z,68.17
2023-04-15T23:08:58.684Z,67.84
2023-04-15T23:11:25.272Z,67.21
2023-04-15T23:13:51.973Z,67.81
2023-04-15T23:16:18.727Z,67.39
2023-04-15T23:18:45.380Z,68.30
2023-04-15T23:21:12.011Z,69.56
2023-04-15T23:23:38.715Z,70.23
2023-04-15T23:26:05.364Z,70.73
2023-04-15T23:28:32.013Z,70.67
2023-04-15T23:31:00.413Z,71.79
2023-04-15T23:33:27.878Z,72.94
2023-04-15T23:35:54.526Z,70.38
2023-04-15T23:38:21.161Z,71.59
2023-04-15T23:40:50.147Z,71.94
2023-04-15T23:43:16.749Z,72.61
2023-04-15T23:45:43.355Z,74.33
2023-04-15T23:48:09.973Z,73.85
2023-04-15T23:50:36.597Z,72.08
2023-04-15T23:53:03.307Z,73.97
2023-04-15T23:55:29.947Z,72.33
2023-04-15T23:57:56.711Z,71.95
